sensor_id;sensor_type;location;lat;lon;timestamp;P1;durP1;ratioP1;P2;durP2;ratioP2
46491;SDS011;32206;51.446;6.792;2023-07-09T00:01:14;5.80;;;2.53;;
46491;SDS011;32206;51.446;6.792;2023-07-09T00:03:42;3.75;;;2.40;;
46491;SDS011;32206;51.446;6.792;2023-07-09T00:06:08;9.93;;;3.10;;
46491;SDS011;32206;51.446;6.792;2023-07-09T00:08:34;4.13;;;2.72;;
46491;SDS011;32206;51.446;6.792;2023-07-09T00:11:00;3.13;;;2.83;;
46491;SDS011;32206;51.446;6.792;2023-07-09T00:13:26;5.50;;;3.45;;
46491;SDS011;32206;51.446;6.792;2023-07-09T00:15:53;4.28;;;2.58;;
46491;SDS011;32206;51.446;6.792;2023-07-09T00:18:23;5.25;;;3.53;;
46491;SDS011;32206;51.446;6.792;2023-07-09T00:24:12;6.10;;;3.10;;
46491;SDS011;32206;51.446;6.792;2023-07-09T00:26:38;3.72;;;2.78;;
46491;SDS011;32206;51.446;6.792;2023-07-09T00:29:08;4.22;;;3.03;;
46491;SDS011;32206;51.446;6.792;2023-07-09T00:31:37;2.90;;;2.55;;
46491;SDS011;32206;51.446;6.792;2023-07-09T00:34:07;5.50;;;2.97;;
46491;SDS011;32206;51.446;6.792;2023-07-09T00:36:36;7.47;;;3.67;;
46491;SDS011;32206;51.446;6.792;2023-07-09T00:39:02;5.10;;;2.80;;
46491;SDS011;32206;51.446;6.792;2023-07-09T00:41:36;3.78;;;2.97;;
46491;SDS011;32206;51.446;6.792;2023-07-09T00:49:16;5.28;;;2.90;;
46491;SDS011;32206;51.446;6.792;2023-07-09T00:51:54;6.82;;;3.05;;
46491;SDS011;32206;51.446;6.792;2023-07-09T00:54:26;4.45;;;3.55;;
46491;SDS011;32206;51.446;6.792;2023-07-09T00:57:12;5.72;;;3.00;;
46491;SDS011;32206;51.446;6.792;2023-07-09T00:59:44;4.00;;;3.00;;
46491;SDS011;32206;51.446;6.792;2023-07-09T01:02:13;3.42;;;2.85;;
46491;SDS011;32206;51.446;6.792;2023-07-09T01:04:39;5.65;;;2.90;;
46491;SDS011;32206;51.446;6.792;2023-07-09T01:07:05;3.75;;;2.83;;
46491;SDS011;32206;51.446;6.792;2023-07-09T01:09:32;4.65;;;3.00;;
46491;SDS011;32206;51.446;6.792;2023-07-09T01:12:01;5.53;;;3.40;;
46491;SDS011;32206;51.446;6.792;2023-07-09T01:14:31;5.85;;;2.90;;
46491;SDS011;32206;51.446;6.792;2023-07-09T01:17:01;4.70;;;2.92;;
46491;SDS011;32206;51.446;6.792;2023-07-09T01:26:11;5.03;;;3.03;;
46491;SDS011;32206;51.446;6.792;2023-07-09T01:28:38;5.22;;;2.42;;
46491;SDS011;32206;51.446;6.792;2023-07-09T01:34:30;7.35;;;3.88;;
46491;SDS011;32206;51.446;6.792;2023-07-09T01:36:57;4.55;;;3.05;;
46491;SDS011;32206;51.446;6.792;2023-07-09T01:39:22;3.58;;;3.28;;
46491;SDS011;32206;51.446;6.792;2023-07-09T01:41:48;3.13;;;2.83;;
46491;SDS011;32206;51.446;6.792;2023-07-09T01:44:14;5.28;;;3.03;;
46491;SDS011;32206;51.446;6.792;2023-07-09T01:46:40;8.73;;;3.38;;
46491;SDS011;32206;51.446;6.792;2023-07-09T01:49:07;5.75;;;2.78;;
46491;SDS011;32206;51.446;6.792;2023-07-09T01:51:34;4.75;;;2.75;;
46491;SDS011;32206;51.446;6.792;2023-07-09T01:54:01;4.95;;;3.28;;
46491;SDS011;32206;51.446;6.792;2023-07-09T01:56:27;7.38;;;3.38;;
46491;SDS011;32206;51.446;6.792;2023-07-09T01:58:54;4.03;;;3.00;;
46491;SDS011;32206;51.446;6.792;2023-07-09T02:01:29;7.55;;;3.17;;
46491;SDS011;32206;51.446;6.792;2023-07-09T02:03:58;7.57;;;3.17;;
46491;SDS011;32206;51.446;6.792;2023-07-09T02:06:24;3.33;;;2.65;;
46491;SDS011;32206;51.446;6.792;2023-07-09T02:08:50;3.30;;;3.03;;
46491;SDS011;32206;51.446;6.792;2023-07-09T02:11:15;4.25;;;3.20;;
46491;SDS011;32206;51.446;6.792;2023-07-09T02:13:41;4.15;;;3.45;;
46491;SDS011;32206;51.446;6.792;2023-07-09T02:16:07;2.92;;;2.63;;
46491;SDS011;32206;51.446;6.792;2023-07-09T02:18:33;4.90;;;3.25;;
46491;SDS011;32206;51.446;6.792;2023-07-09T02:20:59;5.20;;;3.17;;
46491;SDS011;32206;51.446;6.792;2023-07-09T02:23:26;4.78;;;3.08;;
46491;SDS011;32206;51.446;6.792;2023-07-09T02:25:52;4.22;;;3.60;;
46491;SDS011;32206;51.446;6.792;2023-07-09T02:28:18;5.28;;;3.33;;
46491;SDS011;32206;51.446;6.792;2023-07-09T02:30:44;5.32;;;2.67;;
46491;SDS011;32206;51.446;6.792;2023-07-09T02:33:10;5.93;;;3.85;;
46491;SDS011;32206;51.446;6.792;2023-07-09T02:35:36;5.53;;;3.03;;
46491;SDS011;32206;51.446;6.792;2023-07-09T02:38:02;7.55;;;3.20;;
46491;SDS011;32206;51.446;6.792;2023-07-09T02:40:28;4.55;;;3.20;;
46491;SDS011;32206;51.446;6.792;2023-07-09T02:42:54;6.55;;;3.05;;
46491;SDS011;32206;51.446;6.792;2023-07-09T02:45:20;5.22;;;3.40;;
46491;SDS011;32206;51.446;6.792;2023-07-09T02:47:45;3.28;;;2.97;;
46491;SDS011;32206;51.446;6.792;2023-07-09T02:50:12;4.40;;;3.45;;
46491;SDS011;32206;51.446;6.792;2023-07-09T02:52:37;4.90;;;3.40;;
46491;SDS011;32206;51.446;6.792;2023-07-09T02:55:03;9.43;;;3.30;;
46491;SDS011;32206;51.446;6.792;2023-07-09T03:04:14;5.63;;;3.08;;
46491;SDS011;32206;51.446;6.792;2023-07-09T03:06:40;5.20;;;3.03;;
46491;SDS011;32206;51.446;6.792;2023-07-09T03:09:06;5.80;;;3.63;;
46491;SDS011;32206;51.446;6.792;2023-07-09T03:11:33;6.10;;;3.60;;
46491;SDS011;32206;51.446;6.792;2023-07-09T03:13:59;10.55;;;3.83;;
46491;SDS011;32206;51.446;6.792;2023-07-09T03:16:30;5.03;;;3.30;;
46491;SDS011;32206;51.446;6.792;2023-07-09T03:18:57;3.70;;;3.03;;
46491;SDS011;32206;51.446;6.792;2023-07-09T03:21:23;4.45;;;3.58;;
46491;SDS011;32206;51.446;6.792;2023-07-09T03:23:50;3.67;;;3.25;;
46491;SDS011;32206;51.446;6.792;2023-07-09T03:26:18;4.82;;;3.83;;
46491;SDS011;32206;51.446;6.792;2023-07-09T03:28:44;6.30;;;3.28;;
46491;SDS011;32206;51.446;6.792;2023-07-09T03:31:10;8.85;;;3.33;;
46491;SDS011;32206;51.446;6.792;2023-07-09T03:33:35;7.68;;;3.15;;
46491;SDS011;32206;51.446;6.792;2023-07-09T03:36:01;8.23;;;3.53;;
46491;SDS011;32206;51.446;6.792;2023-07-09T03:38:29;5.82;;;3.30;;
46491;SDS011;32206;51.446;6.792;2023-07-09T03:40:56;4.60;;;3.55;;
46491;SDS011;32206;51.446;6.792;2023-07-09T03:43:22;6.95;;;3.30;;
46491;SDS011;32206;51.446;6.792;2023-07-09T03:45:49;9.55;;;3.75;;
46491;SDS011;32206;51.446;6.792;2023-07-09T03:48:15;4.30;;;3.33;;
46491;SDS011;32206;51.446;6.792;2023-07-09T03:50:43;5.53;;;3.58;;
46491;SDS011;32206;51.446;6.792;2023-07-09T03:53:10;9.05;;;3.70;;
46491;SDS011;32206;51.446;6.792;2023-07-09T03:55:36;5.90;;;3.80;;
46491;SDS011;32206;51.446;6.792;2023-07-09T03:58:02;6.00;;;3.97;;
46491;SDS011;32206;51.446;6.792;2023-07-09T04:00:29;6.03;;;3.55;;
46491;SDS011;32206;51.446;6.792;2023-07-09T04:02:55;8.95;;;3.35;;
46491;SDS011;32206;51.446;6.792;2023-07-09T04:05:22;5.28;;;3.00;;
46491;SDS011;32206;51.446;6.792;2023-07-09T04:07:48;4.50;;;3.42;;
46491;SDS011;32206;51.446;6.792;2023-07-09T04:10:15;6.30;;;3.03;;
46491;SDS011;32206;51.446;6.792;2023-07-09T04:12:40;3.85;;;3.22;;
46491;SDS011;32206;51.446;6.792;2023-07-09T04:15:06;3.75;;;3.08;;
46491;SDS011;32206;51.446;6.792;2023-07-09T04:17:32;4.60;;;3.40;;
46491;SDS011;32206;51.446;6.792;2023-07-09T04:19:58;3.92;;;3.30;;
46491;SDS011;32206;51.446;6.792;2023-07-09T04:22:24;6.28;;;3.58;;
46491;SDS011;32206;51.446;6.792;2023-07-09T04:24:50;6.70;;;3.20;;
46491;SDS011;32206;51.446;6.792;2023-07-09T04:27:17;3.60;;;3.30;;
46491;SDS011;32206;51.446;6.792;2023-07-09T04:29:43;6.07;;;3.63;;
46491;SDS011;32206;51.446;6.792;2023-07-09T04:32:12;6.47;;;3.30;;
46491;SDS011;32206;51.446;6.792;2023-07-09T04:34:39;5.05;;;4.25;;
46491;SDS011;32206;51.446;6.792;2023-07-09T04:37:09;6.75;;;3.40;;
46491;SDS011;32206;51.446;6.792;2023-07-09T04:39:36;5.20;;;3.50;;
46491;SDS011;32206;51.446;6.792;2023-07-09T04:42:03;7.32;;;3.58;;
46491;SDS011;32206;51.446;6.792;2023-07-09T04:44:29;4.00;;;3.15;;
46491;SDS011;32206;51.446;6.792;2023-07-09T04:46:54;4.78;;;3.78;;
46491;SDS011;32206;51.446;6.792;2023-07-09T04:49:20;9.48;;;3.90;;
46491;SDS011;32206;51.446;6.792;2023-07-09T04:51:46;5.10;;;3.42;;
46491;SDS011;32206;51.446;6.792;2023-07-09T05:00:56;6.72;;;3.65;;
46491;SDS011;32206;51.446;6.792;2023-07-09T05:10:08;4.45;;;2.70;;
46491;SDS011;32206;51.446;6.792;2023-07-09T05:12:34;5.18;;;3.20;;
46491;SDS011;32206;51.446;6.792;2023-07-09T05:14:59;4.15;;;3.00;;
46491;SDS011;32206;51.446;6.792;2023-07-09T05:17:25;5.13;;;3.50;;
46491;SDS011;32206;51.446;6.792;2023-07-09T05:19:51;3.42;;;2.97;;
46491;SDS011;32206;51.446;6.792;2023-07-09T05:32:51;5.85;;;3.35;;
46491;SDS011;32206;51.446;6.792;2023-07-09T05:35:18;7.43;;;3.30;;
46491;SDS011;32206;51.446;6.792;2023-07-09T05:37:44;7.13;;;3.33;;
46491;SDS011;32206;51.446;6.792;2023-07-09T05:40:10;4.90;;;3.03;;
46491;SDS011;32206;51.446;6.792;2023-07-09T05:42:37;6.15;;;2.95;;
46491;SDS011;32206;51.446;6.792;2023-07-09T05:45:02;8.90;;;3.10;;
46491;SDS011;32206;51.446;6.792;2023-07-09T05:47:28;7.95;;;2.88;;
46491;SDS011;32206;51.446;6.792;2023-07-09T05:49:54;4.47;;;3.50;;
46491;SDS011;32206;51.446;6.792;2023-07-09T05:52:20;6.05;;;2.97;;
46491;SDS011;32206;51.446;6.792;2023-07-09T05:54:50;4.28;;;2.95;;
46491;SDS011;32206;51.446;6.792;2023-07-09T05:57:17;4.72;;;3.13;;
46491;SDS011;32206;51.446;6.792;2023-07-09T06:09:49;7.13;;;3.00;;
46491;SDS011;32206;51.446;6.792;2023-07-09T06:12:15;3.70;;;3.40;;
46491;SDS011;32206;51.446;6.792;2023-07-09T06:18:08;4.78;;;3.75;;
46491;SDS011;32206;51.446;6.792;2023-07-09T06:20:34;7.25;;;3.85;;
46491;SDS011;32206;51.446;6.792;2023-07-09T06:23:00;7.07;;;3.25;;
46491;SDS011;32206;51.446;6.792;2023-07-09T06:25:25;9.30;;;3.70;;
46491;SDS011;32206;51.446;6.792;2023-07-09T06:27:51;5.25;;;3.53;;
46491;SDS011;32206;51.446;6.792;2023-07-09T06:30:17;6.78;;;3.28;;
46491;SDS011;32206;51.446;6.792;2023-07-09T06:32:44;5.20;;;2.83;;
46491;SDS011;32206;51.446;6.792;2023-07-09T06:35:10;4.82;;;3.20;;
46491;SDS011;32206;51.446;6.792;2023-07-09T06:37:36;8.93;;;3.83;;
46491;SDS011;32206;51.446;6.792;2023-07-09T06:40:02;7.78;;;3.05;;
46491;SDS011;32206;51.446;6.792;2023-07-09T06:42:29;7.07;;;3.13;;
46491;SDS011;32206;51.446;6.792;2023-07-09T06:48:17;5.32;;;2.75;;
46491;SDS011;32206;51.446;6.792;2023-07-09T06:50:43;4.28;;;3.72;;
46491;SDS011;32206;51.446;6.792;2023-07-09T06:53:09;6.65;;;3.50;;
46491;SDS011;32206;51.446;6.792;2023-07-09T06:55:34;5.80;;;3.08;;
46491;SDS011;32206;51.446;6.792;2023-07-09T06:58:00;5.20;;;3.10;;
46491;SDS011;32206;51.446;6.792;2023-07-09T07:00:26;3.90;;;3.53;;
46491;SDS011;32206;51.446;6.792;2023-07-09T07:02:51;4.82;;;3.80;;
46491;SDS011;32206;51.446;6.792;2023-07-09T07:05:18;5.05;;;3.42;;
46491;SDS011;32206;51.446;6.792;2023-07-09T07:07:44;7.35;;;3.50;;
46491;SDS011;32206;51.446;6.792;2023-07-09T07:10:10;4.60;;;3.40;;
46491;SDS011;32206;51.446;6.792;2023-07-09T07:12:46;4.82;;;3.28;;
46491;SDS011;32206;51.446;6.792;2023-07-09T07:15:14;5.03;;;3.30;;
46491;SDS011;32206;51.446;6.792;2023-07-09T07:17:43;5.68;;;3.55;;
46491;SDS011;32206;51.446;6.792;2023-07-09T07:20:09;4.40;;;2.95;;
46491;SDS011;32206;51.446;6.792;2023-07-09T07:22:36;7.80;;;3.22;;
46491;SDS011;32206;51.446;6.792;2023-07-09T07:25:03;7.85;;;3.20;;
46491;SDS011;32206;51.446;6.792;2023-07-09T07:27:30;5.40;;;3.22;;
46491;SDS011;32206;51.446;6.792;2023-07-09T07:29:56;6.30;;;3.47;;
46491;SDS011;32206;51.446;6.792;2023-07-09T07:32:22;7.82;;;3.58;;
46491;SDS011;32206;51.446;6.792;2023-07-09T07:34:48;7.55;;;3.75;;
46491;SDS011;32206;51.446;6.792;2023-07-09T07:37:14;5.75;;;3.90;;
46491;SDS011;32206;51.446;6.792;2023-07-09T07:39:40;6.40;;;3.90;;
46491;SDS011;32206;51.446;6.792;2023-07-09T07:42:06;5.20;;;2.88;;
46491;SDS011;32206;51.446;6.792;2023-07-09T07:47:57;5.53;;;3.35;;
46491;SDS011;32206;51.446;6.792;2023-07-09T07:50:22;3.70;;;3.08;;
46491;SDS011;32206;51.446;6.792;2023-07-09T07:52:48;6.18;;;3.00;;
46491;SDS011;32206;51.446;6.792;2023-07-09T07:55:14;4.50;;;3.72;;
46491;SDS011;32206;51.446;6.792;2023-07-09T07:57:40;4.65;;;2.75;;
46491;SDS011;32206;51.446;6.792;2023-07-09T08:00:06;3.83;;;2.88;;
46491;SDS011;32206;51.446;6.792;2023-07-09T08:02:32;5.85;;;3.45;;
46491;SDS011;32206;51.446;6.792;2023-07-09T08:04:57;3.80;;;2.83;;
46491;SDS011;32206;51.446;6.792;2023-07-09T08:07:23;5.50;;;3.78;;
46491;SDS011;32206;51.446;6.792;2023-07-09T08:09:48;5.28;;;3.35;;
46491;SDS011;32206;51.446;6.792;2023-07-09T08:12:14;9.77;;;3.88;;
46491;SDS011;32206;51.446;6.792;2023-07-09T08:14:41;5.13;;;3.00;;
46491;SDS011;32206;51.446;6.792;2023-07-09T08:17:09;6.80;;;3.13;;
46491;SDS011;32206;51.446;6.792;2023-07-09T08:19:44;5.25;;;3.28;;
46491;SDS011;32206;51.446;6.792;2023-07-09T08:22:15;7.70;;;3.50;;
46491;SDS011;32206;51.446;6.792;2023-07-09T08:24:41;4.95;;;3.13;;
46491;SDS011;32206;51.446;6.792;2023-07-09T08:27:07;5.85;;;3.17;;
46491;SDS011;32206;51.446;6.792;2023-07-09T08:29:34;6.22;;;3.40;;
46491;SDS011;32206;51.446;6.792;2023-07-09T08:32:00;8.93;;;3.42;;
46491;SDS011;32206;51.446;6.792;2023-07-09T08:34:26;4.13;;;3.72;;
46491;SDS011;32206;51.446;6.792;2023-07-09T08:36:52;6.13;;;3.22;;
46491;SDS011;32206;51.446;6.792;2023-07-09T08:39:17;7.00;;;3.15;;
46491;SDS011;32206;51.446;6.792;2023-07-09T08:41:45;6.15;;;3.15;;
46491;SDS011;32206;51.446;6.792;2023-07-09T08:49:51;8.75;;;3.50;;
46491;SDS011;32206;51.446;6.792;2023-07-09T08:52:35;4.65;;;3.10;;
46491;SDS011;32206;51.446;6.792;2023-07-09T08:55:12;3.78;;;3.38;;
46491;SDS011;32206;51.446;6.792;2023-07-09T09:04:25;5.00;;;3.08;;
46491;SDS011;32206;51.446;6.792;2023-07-09T09:09:39;6.00;;;2.80;;
46491;SDS011;32206;51.446;6.792;2023-07-09T09:20:55;4.07;;;3.53;;
46491;SDS011;32206;51.446;6.792;2023-07-09T09:23:37;6.20;;;3.08;;
46491;SDS011;32206;51.446;6.792;2023-07-09T09:26:18;8.05;;;3.45;;
46491;SDS011;32206;51.446;6.792;2023-07-09T09:28:48;6.00;;;3.25;;
46491;SDS011;32206;51.446;6.792;2023-07-09T09:31:13;8.30;;;2.75;;
46491;SDS011;32206;51.446;6.792;2023-07-09T09:40:27;4.95;;;3.05;;
46491;SDS011;32206;51.446;6.792;2023-07-09T09:42:55;2.88;;;2.53;;
46491;SDS011;32206;51.446;6.792;2023-07-09T09:45:26;7.53;;;2.42;;
46491;SDS011;32206;51.446;6.792;2023-07-09T09:48:13;4.28;;;2.85;;
46491;SDS011;32206;51.446;6.792;2023-07-09T09:50:44;4.55;;;3.05;;
46491;SDS011;32206;51.446;6.792;2023-07-09T09:53:12;3.28;;;2.78;;
46491;SDS011;32206;51.446;6.792;2023-07-09T09:55:48;6.07;;;3.10;;
46491;SDS011;32206;51.446;6.792;2023-07-09T09:58:16;5.10;;;2.55;;
46491;SDS011;32206;51.446;6.792;2023-07-09T10:00:50;7.57;;;2.50;;
46491;SDS011;32206;51.446;6.792;2023-07-09T10:03:17;6.13;;;3.03;;
46491;SDS011;32206;51.446;6.792;2023-07-09T10:05:47;2.80;;;2.30;;
46491;SDS011;32206;51.446;6.792;2023-07-09T10:20:29;4.03;;;2.72;;
46491;SDS011;32206;51.446;6.792;2023-07-09T10:28:52;6.35;;;2.33;;
46491;SDS011;32206;51.446;6.792;2023-07-09T10:40:57;5.80;;;2.75;;
46491;SDS011;32206;51.446;6.792;2023-07-09T10:43:30;4.05;;;2.30;;
46491;SDS011;32206;51.446;6.792;2023-07-09T10:46:15;7.70;;;3.30;;
46491;SDS011;32206;51.446;6.792;2023-07-09T10:48:44;3.85;;;2.42;;
46491;SDS011;32206;51.446;6.792;2023-07-09T11:00:40;2.63;;;2.22;;
46491;SDS011;32206;51.446;6.792;2023-07-09T11:03:50;3.85;;;1.88;;
46491;SDS011;32206;51.446;6.792;2023-07-09T11:06:05;3.38;;;2.42;;
46491;SDS011;32206;51.446;6.792;2023-07-09T11:08:43;7.55;;;2.42;;
46491;SDS011;32206;51.446;6.792;2023-07-09T11:11:24;8.55;;;2.58;;
46491;SDS011;32206;51.446;6.792;2023-07-09T11:14:00;3.85;;;2.45;;
46491;SDS011;32206;51.446;6.792;2023-07-09T11:16:34;4.57;;;2.40;;
46491;SDS011;32206;51.446;6.792;2023-07-09T11:19:04;2.38;;;2.05;;
46491;SDS011;32206;51.446;6.792;2023-07-09T11:21:39;2.50;;;2.10;;
46491;SDS011;32206;51.446;6.792;2023-07-09T11:24:27;5.95;;;2.50;;
46491;SDS011;32206;51.446;6.792;2023-07-09T11:26:56;6.97;;;2.58;;
46491;SDS011;32206;51.446;6.792;2023-07-09T11:29:24;7.82;;;2.42;;
46491;SDS011;32206;51.446;6.792;2023-07-09T11:31:50;5.85;;;2.30;;
46491;SDS011;32206;51.446;6.792;2023-07-09T11:34:16;5.68;;;2.30;;
46491;SDS011;32206;51.446;6.792;2023-07-09T11:36:51;4.22;;;2.15;;
46491;SDS011;32206;51.446;6.792;2023-07-09T11:43:24;4.72;;;2.28;;
46491;SDS011;32206;51.446;6.792;2023-07-09T11:52:48;5.45;;;2.17;;
46491;SDS011;32206;51.446;6.792;2023-07-09T11:57:59;4.60;;;2.63;;
46491;SDS011;32206;51.446;6.792;2023-07-09T12:00:42;5.25;;;2.53;;
46491;SDS011;32206;51.446;6.792;2023-07-09T12:06:13;6.68;;;2.85;;
46491;SDS011;32206;51.446;6.792;2023-07-09T12:08:49;4.03;;;2.60;;
46491;SDS011;32206;51.446;6.792;2023-07-09T12:11:29;5.22;;;2.38;;
46491;SDS011;32206;51.446;6.792;2023-07-09T12:14:00;6.20;;;2.30;;
46491;SDS011;32206;51.446;6.792;2023-07-09T12:16:35;2.33;;;1.95;;
46491;SDS011;32206;51.446;6.792;2023-07-09T12:19:05;3.88;;;2.47;;
46491;SDS011;32206;51.446;6.792;2023-07-09T12:21:33;3.42;;;2.33;;
46491;SDS011;32206;51.446;6.792;2023-07-09T12:24:02;4.53;;;2.15;;
46491;SDS011;32206;51.446;6.792;2023-07-09T12:26:30;8.68;;;2.70;;
46491;SDS011;32206;51.446;6.792;2023-07-09T12:28:57;3.95;;;2.13;;
46491;SDS011;32206;51.446;6.792;2023-07-09T12:31:27;4.80;;;2.28;;
46491;SDS011;32206;51.446;6.792;2023-07-09T12:33:55;4.43;;;2.50;;
46491;SDS011;32206;51.446;6.792;2023-07-09T12:36:23;5.95;;;2.35;;
46491;SDS011;32206;51.446;6.792;2023-07-09T12:38:50;4.70;;;2.50;;
46491;SDS011;32206;51.446;6.792;2023-07-09T12:41:24;7.57;;;2.80;;
46491;SDS011;32206;51.446;6.792;2023-07-09T12:54:02;5.90;;;2.60;;
46491;SDS011;32206;51.446;6.792;2023-07-09T12:56:36;5.55;;;2.50;;
46491;SDS011;32206;51.446;6.792;2023-07-09T12:59:03;3.60;;;2.78;;
46491;SDS011;32206;51.446;6.792;2023-07-09T13:11:15;4.20;;;2.33;;
46491;SDS011;32206;51.446;6.792;2023-07-09T13:13:53;6.07;;;3.28;;
46491;SDS011;32206;51.446;6.792;2023-07-09T13:16:20;3.78;;;2.63;;
46491;SDS011;32206;51.446;6.792;2023-07-09T13:18:46;4.85;;;2.67;;
46491;SDS011;32206;51.446;6.792;2023-07-09T13:21:19;4.05;;;2.47;;
46491;SDS011;32206;51.446;6.792;2023-07-09T13:23:45;6.57;;;2.65;;
46491;SDS011;32206;51.446;6.792;2023-07-09T13:26:12;7.25;;;2.75;;
46491;SDS011;32206;51.446;6.792;2023-07-09T13:28:39;6.25;;;2.65;;
46491;SDS011;32206;51.446;6.792;2023-07-09T13:31:16;5.75;;;2.45;;
46491;SDS011;32206;51.446;6.792;2023-07-09T13:33:49;4.38;;;2.40;;
46491;SDS011;32206;51.446;6.792;2023-07-09T13:36:18;3.75;;;2.80;;
46491;SDS011;32206;51.446;6.792;2023-07-09T13:38:44;5.53;;;2.72;;
46491;SDS011;32206;51.446;6.792;2023-07-09T13:41:11;3.50;;;2.45;;
46491;SDS011;32206;51.446;6.792;2023-07-09T13:53:53;8.20;;;3.63;;
46491;SDS011;32206;51.446;6.792;2023-07-09T13:56:20;6.88;;;3.33;;
46491;SDS011;32206;51.446;6.792;2023-07-09T13:58:45;9.27;;;3.08;;
46491;SDS011;32206;51.446;6.792;2023-07-09T14:01:15;8.18;;;3.25;;
46491;SDS011;32206;51.446;6.792;2023-07-09T14:03:45;11.38;;;3.20;;
46491;SDS011;32206;51.446;6.792;2023-07-09T14:06:15;9.20;;;4.55;;
46491;SDS011;32206;51.446;6.792;2023-07-09T14:08:42;12.18;;;4.45;;
46491;SDS011;32206;51.446;6.792;2023-07-09T14:17:27;13.43;;;5.25;;
46491;SDS011;32206;51.446;6.792;2023-07-09T14:19:53;6.50;;;3.83;;
46491;SDS011;32206;51.446;6.792;2023-07-09T14:22:35;7.38;;;3.45;;
46491;SDS011;32206;51.446;6.792;2023-07-09T14:28:27;7.90;;;3.92;;
46491;SDS011;32206;51.446;6.792;2023-07-09T14:30:53;7.63;;;4.03;;
46491;SDS011;32206;51.446;6.792;2023-07-09T14:33:19;9.63;;;4.07;;
46491;SDS011;32206;51.446;6.792;2023-07-09T14:35:46;10.32;;;4.00;;
46491;SDS011;32206;51.446;6.792;2023-07-09T14:40:58;6.13;;;2.55;;
46491;SDS011;32206;51.446;6.792;2023-07-09T14:43:26;3.50;;;1.88;;
46491;SDS011;32206;51.446;6.792;2023-07-09T14:45:51;4.18;;;2.40;;
46491;SDS011;32206;51.446;6.792;2023-07-09T14:48:18;8.43;;;2.60;;
46491;SDS011;32206;51.446;6.792;2023-07-09T14:50:45;8.75;;;2.78;;
46491;SDS011;32206;51.446;6.792;2023-07-09T14:53:17;9.60;;;2.40;;
46491;SDS011;32206;51.446;6.792;2023-07-09T14:55:48;7.25;;;3.22;;
46491;SDS011;32206;51.446;6.792;2023-07-09T14:58:17;6.82;;;2.72;;
46491;SDS011;32206;51.446;6.792;2023-07-09T15:00:44;6.93;;;3.78;;
46491;SDS011;32206;51.446;6.792;2023-07-09T15:03:12;8.90;;;3.55;;
46491;SDS011;32206;51.446;6.792;2023-07-09T15:09:40;6.43;;;3.15;;
46491;SDS011;32206;51.446;6.792;2023-07-09T15:12:13;4.88;;;3.10;;
46491;SDS011;32206;51.446;6.792;2023-07-09T15:14:42;5.00;;;3.13;;
46491;SDS011;32206;51.446;6.792;2023-07-09T15:17:10;5.82;;;3.55;;
46491;SDS011;32206;51.446;6.792;2023-07-09T15:19:37;5.90;;;3.38;;
46491;SDS011;32206;51.446;6.792;2023-07-09T15:22:03;5.65;;;3.85;;
46491;SDS011;32206;51.446;6.792;2023-07-09T15:24:30;8.02;;;3.53;;
46491;SDS011;32206;51.446;6.792;2023-07-09T15:26:59;6.57;;;3.97;;
46491;SDS011;32206;51.446;6.792;2023-07-09T15:29:26;8.93;;;4.05;;
46491;SDS011;32206;51.446;6.792;2023-07-09T15:31:53;14.45;;;4.15;;
46491;SDS011;32206;51.446;6.792;2023-07-09T15:34:19;5.55;;;3.63;;
46491;SDS011;32206;51.446;6.792;2023-07-09T15:36:45;4.65;;;3.63;;
46491;SDS011;32206;51.446;6.792;2023-07-09T15:39:16;6.68;;;3.65;;
46491;SDS011;32206;51.446;6.792;2023-07-09T15:41:42;6.88;;;3.60;;
46491;SDS011;32206;51.446;6.792;2023-07-09T15:44:09;4.97;;;3.55;;
46491;SDS011;32206;51.446;6.792;2023-07-09T15:46:39;12.68;;;4.85;;
46491;SDS011;32206;51.446;6.792;2023-07-09T15:49:07;4.43;;;3.65;;
46491;SDS011;32206;51.446;6.792;2023-07-09T15:51:36;4.93;;;3.45;;
46491;SDS011;32206;51.446;6.792;2023-07-09T15:54:04;7.72;;;3.50;;
46491;SDS011;32206;51.446;6.792;2023-07-09T15:56:56;5.90;;;3.67;;
46491;SDS011;32206;51.446;6.792;2023-07-09T15:59:24;4.88;;;3.50;;
46491;SDS011;32206;51.446;6.792;2023-07-09T16:01:55;9.77;;;3.95;;
46491;SDS011;32206;51.446;6.792;2023-07-09T16:04:22;8.73;;;4.18;;
46491;SDS011;32206;51.446;6.792;2023-07-09T16:06:48;12.55;;;4.80;;
46491;SDS011;32206;51.446;6.792;2023-07-09T16:09:14;6.07;;;3.97;;
46491;SDS011;32206;51.446;6.792;2023-07-09T16:11:40;9.93;;;4.85;;
46491;SDS011;32206;51.446;6.792;2023-07-09T16:16:42;11.20;;;5.40;;
46491;SDS011;32206;51.446;6.792;2023-07-09T16:19:08;5.32;;;4.07;;
46491;SDS011;32206;51.446;6.792;2023-07-09T16:21:33;6.95;;;4.55;;
46491;SDS011;32206;51.446;6.792;2023-07-09T16:24:00;6.18;;;4.45;;
46491;SDS011;32206;51.446;6.792;2023-07-09T16:26:28;9.05;;;4.63;;
46491;SDS011;32206;51.446;6.792;2023-07-09T16:28:54;8.02;;;4.82;;
46491;SDS011;32206;51.446;6.792;2023-07-09T16:31:20;12.10;;;4.72;;
46491;SDS011;32206;51.446;6.792;2023-07-09T16:33:46;7.70;;;4.65;;
46491;SDS011;32206;51.446;6.792;2023-07-09T16:36:13;7.50;;;5.32;;
46491;SDS011;32206;51.446;6.792;2023-07-09T16:38:40;8.80;;;4.32;;
46491;SDS011;32206;51.446;6.792;2023-07-09T16:41:09;5.60;;;4.53;;
46491;SDS011;32206;51.446;6.792;2023-07-09T16:43:37;8.60;;;4.78;;
46491;SDS011;32206;51.446;6.792;2023-07-09T16:46:14;8.68;;;4.63;;
46491;SDS011;32206;51.446;6.792;2023-07-09T16:48:46;6.00;;;4.80;;
46491;SDS011;32206;51.446;6.792;2023-07-09T16:51:11;6.53;;;4.38;;
46491;SDS011;32206;51.446;6.792;2023-07-09T16:53:37;9.88;;;4.65;;
46491;SDS011;32206;51.446;6.792;2023-07-09T16:56:03;9.55;;;4.57;;
46491;SDS011;32206;51.446;6.792;2023-07-09T16:58:32;7.82;;;4.32;;
46491;SDS011;32206;51.446;6.792;2023-07-09T17:01:00;10.60;;;4.63;;
46491;SDS011;32206;51.446;6.792;2023-07-09T17:03:27;5.78;;;5.13;;
46491;SDS011;32206;51.446;6.792;2023-07-09T17:05:53;5.55;;;4.97;;
46491;SDS011;32206;51.446;6.792;2023-07-09T17:08:19;6.95;;;4.97;;
46491;SDS011;32206;51.446;6.792;2023-07-09T17:10:45;6.03;;;4.65;;
46491;SDS011;32206;51.446;6.792;2023-07-09T17:13:23;9.02;;;5.32;;
46491;SDS011;32206;51.446;6.792;2023-07-09T17:15:50;6.75;;;5.28;;
46491;SDS011;32206;51.446;6.792;2023-07-09T17:18:18;7.80;;;5.03;;
46491;SDS011;32206;51.446;6.792;2023-07-09T17:20:45;6.93;;;4.85;;
46491;SDS011;32206;51.446;6.792;2023-07-09T17:29:57;9.77;;;5.70;;
46491;SDS011;32206;51.446;6.792;2023-07-09T17:32:22;8.30;;;5.00;;
46491;SDS011;32206;51.446;6.792;2023-07-09T17:34:48;5.18;;;4.75;;
46491;SDS011;32206;51.446;6.792;2023-07-09T17:37:14;5.65;;;4.72;;
46491;SDS011;32206;51.446;6.792;2023-07-09T17:39:41;10.02;;;5.70;;
46491;SDS011;32206;51.446;6.792;2023-07-09T17:42:14;8.63;;;5.28;;
46491;SDS011;32206;51.446;6.792;2023-07-09T17:44:41;12.88;;;5.50;;
46491;SDS011;32206;51.446;6.792;2023-07-09T17:47:17;7.22;;;5.57;;
46491;SDS011;32206;51.446;6.792;2023-07-09T17:49:44;7.78;;;4.93;;
46491;SDS011;32206;51.446;6.792;2023-07-09T17:52:17;6.68;;;6.00;;
46491;SDS011;32206;51.446;6.792;2023-07-09T17:58:07;6.13;;;5.63;;
46491;SDS011;32206;51.446;6.792;2023-07-09T18:00:36;7.53;;;5.38;;
46491;SDS011;32206;51.446;6.792;2023-07-09T18:03:11;8.88;;;5.60;;
46491;SDS011;32206;51.446;6.792;2023-07-09T18:05:38;9.70;;;5.30;;
46491;SDS011;32206;51.446;6.792;2023-07-09T18:08:05;5.38;;;4.88;;
46491;SDS011;32206;51.446;6.792;2023-07-09T18:10:33;7.22;;;5.47;;
46491;SDS011;32206;51.446;6.792;2023-07-09T18:15:35;9.15;;;6.13;;
46491;SDS011;32206;51.446;6.792;2023-07-09T18:18:02;7.82;;;4.70;;
46491;SDS011;32206;51.446;6.792;2023-07-09T18:20:29;6.90;;;5.47;;
46491;SDS011;32206;51.446;6.792;2023-07-09T18:22:55;6.13;;;4.80;;
46491;SDS011;32206;51.446;6.792;2023-07-09T18:25:21;5.55;;;4.65;;
46491;SDS011;32206;51.446;6.792;2023-07-09T18:27:52;6.30;;;5.22;;
46491;SDS011;32206;51.446;6.792;2023-07-09T18:30:25;8.43;;;6.45;;